KALB/ALB METAR and TAF weather

Enter ICAO airport designator
Station Type Date Time Source
KALB METAR 2022/05/24 10:51 UTC NOAA

KALB 241051Z 35005KT 10SM BKN075 BKN250 11/05 A3032 RMK AO2 SLP269 T01110050


Station Type Date Time Source
KALB Decoded METAR 2022/05/24 10:51 UTC NOAA

ALBANY INTERNATIONAL AIRPORT, NY, United States (KALB) 42-45N 73-48W
May 24, 2022 - 06:51 AM EDT / 2022.05.24 1051 UTC
Wind: from the N (350 degrees) at 6 MPH (5 KT):0
Visibility: 10 mile(s):0
Sky conditions: mostly cloudy
Temperature: 52.0 F (11.1 C)
Dew Point: 41.0 F (5.0 C)
Relative Humidity: 66%
Pressure (altimeter): 30.32 in. Hg (1026 hPa)
ob: KALB 241051Z 35005KT 10SM BKN075 BKN250 11/05 A3032 RMK AO2 SLP269 T01110050
cycle: 11

Station Type Date Time Source
KALB TAF 2022/05/24 12:22 UTC NOAA

TAF KALB 241120Z 2412/2512 35005KT P6SM BKN080 BKN250
FM241700 16004KT P6SM SCT060
FM250200 17005KT P6SM BKN100

Example: see airport list